Time;durP1;ratioP1;P1;durP2;ratioP2;P2;SDS_P1;SDS_P2;PMS_P1;PMS_P2;Temp;Humidity;BMP_temperature;BMP_pressure;BME280_temperature;BME280_humidity;BME280_pressure;Samples;Min_cycle;Max_cycle;Signal;HPM_P1;HPM_P2
2022/02/20 00:01:28;;;;;;;;;4.75;2.00;;;;;10.99;58.12;101049.56;5098564;27;76222;-61
2022/02/20 00:03:53;;;;;;;;;1.00;1.00;;;;;11.01;57.84;101045.97;5099077;27;63187;-60
2022/02/20 00:06:19;;;;;;;;;2.00;2.00;;;;;11.02;58.28;101058.16;5098702;27;45714;-61
2022/02/20 00:08:44;;;;;;;;;4.25;1.00;;;;;11.03;58.14;101044.91;5099668;27;45587;-60
2022/02/20 00:11:09;;;;;;;;;1.25;0.25;;;;;11.05;58.54;101048.25;5099625;27;45393;-60
2022/02/20 00:13:35;;;;;;;;;1.00;1.00;;;;;11.04;58.36;101041.31;5098875;27;61757;-60
2022/02/20 00:16:01;;;;;;;;;3.50;2.00;;;;;11.04;58.43;101043.09;5099678;27;45301;-60
2022/02/20 00:18:26;;;;;;;;;21.25;17.75;;;;;11.05;58.34;101029.84;5099478;27;45529;-60
2022/02/20 00:20:51;;;;;;;;;1.75;1.75;;;;;11.04;58.57;101035.22;5099272;27;45985;-60
2022/02/20 00:23:17;;;;;;;;;2.50;1.00;;;;;11.03;58.58;101047.53;5081149;27;45459;-61
2022/02/20 00:25:43;;;;;;;;;3.00;2.00;;;;;11.03;58.60;101039.66;5099382;27;45329;-60
2022/02/20 00:28:08;;;;;;;;;4.75;1.75;;;;;11.06;58.77;101038.53;5099367;27;45192;-60
2022/02/20 00:30:34;;;;;;;;;3.25;1.00;;;;;11.05;58.76;101042.97;5098928;27;45341;-60
2022/02/20 00:33:00;;;;;;;;;3.50;1.00;;;;;11.06;58.76;101044.66;5099151;27;46796;-60
2022/02/20 00:35:30;;;;;;;;;1.25;1.25;;;;;11.06;58.61;101036.75;5099303;27;45165;-60
2022/02/20 00:37:55;;;;;;;;;1.00;1.00;;;;;11.07;58.41;101030.53;5099383;27;45310;-60
2022/02/20 00:40:21;;;;;;;;;1.00;1.00;;;;;11.08;58.71;101047.16;5098984;27;47487;-60
2022/02/20 00:42:47;;;;;;;;;2.00;1.75;;;;;11.08;58.54;101039.25;5099095;27;45324;-60
2022/02/20 00:45:12;;;;;;;;;2.25;1.00;;;;;11.07;58.93;101035.81;5099128;27;46070;-60
2022/02/20 00:47:37;;;;;;;;;2.75;2.25;;;;;11.07;58.91;101033.16;5098526;27;55935;-60
2022/02/20 00:50:03;;;;;;;;;1.00;1.00;;;;;11.07;58.76;101038.44;5097939;27;45475;-61
2022/02/20 00:52:28;;;;;;;;;1.25;1.00;;;;;11.07;58.88;101048.09;5097648;27;45875;-60
2022/02/20 00:54:54;;;;;;;;;2.00;1.00;;;;;11.06;59.08;101039.41;5098340;27;57163;-60
2022/02/20 00:57:21;;;;;;;;;4.50;2.50;;;;;11.04;58.93;101033.44;5098209;27;45353;-60
2022/02/20 00:59:46;;;;;;;;;1.50;1.50;;;;;11.04;59.07;101037.84;5097796;27;46097;-60
2022/02/20 01:02:12;;;;;;;;;2.50;1.75;;;;;11.04;59.16;101041.31;5098608;27;52054;-61
2022/02/20 01:04:37;;;;;;;;;3.00;3.00;;;;;11.03;59.19;101039.66;5098544;27;48260;-59
2022/02/20 01:07:03;;;;;;;;;2.50;2.00;;;;;11.02;59.37;101035.34;5098229;27;56458;-60
2022/02/20 01:09:28;;;;;;;;;3.00;1.25;;;;;11.02;59.86;101040.59;5098688;27;45459;-60
2022/02/20 01:11:53;;;;;;;;;3.75;1.00;;;;;11.01;59.84;101033.69;5097809;27;64857;-61
2022/02/20 01:14:19;;;;;;;;;2.00;1.00;;;;;11.02;59.71;101037.97;5097965;27;62033;-60
2022/02/20 01:16:44;;;;;;;;;2.50;2.00;;;;;11.02;59.95;101032.72;5098673;27;45309;-60
2022/02/20 01:19:10;;;;;;;;;1.25;1.25;;;;;11.03;60.12;101028.28;5098387;27;46403;-61
2022/02/20 01:21:35;;;;;;;;;3.00;1.00;;;;;11.02;60.01;101035.34;5097468;27;72205;-60
2022/02/20 01:24:00;;;;;;;;;3.50;2.50;;;;;11.01;60.50;101043.34;5098514;27;45278;-60
2022/02/20 01:26:26;;;;;;;;;2.25;1.25;;;;;11.01;60.43;101041.56;5097055;27;55400;-60
2022/02/20 01:28:51;;;;;;;;;2.00;2.00;;;;;11.01;60.47;101022.31;5097450;27;70474;-60
2022/02/20 01:31:16;;;;;;;;;4.75;2.00;;;;;10.99;60.48;101028.53;5097184;27;67748;-60
2022/02/20 01:33:42;;;;;;;;;3.00;2.00;;;;;10.99;60.95;101030.34;5079473;27;62464;-60
2022/02/20 01:36:08;;;;;;;;;3.00;2.00;;;;;10.98;60.91;101031.28;5097301;27;68849;-61
2022/02/20 01:38:34;;;;;;;;;2.75;1.50;;;;;10.99;60.98;101040.84;5098123;27;47202;-60
2022/02/20 01:40:59;;;;;;;;;2.50;1.00;;;;;10.98;60.47;101042.63;5098237;27;45236;-60
2022/02/20 01:43:24;;;;;;;;;2.25;1.00;;;;;10.99;60.50;101044.31;5098267;27;45630;-60
2022/02/20 01:45:50;;;;;;;;;2.00;2.00;;;;;10.98;60.70;101047.06;5079613;27;45921;-61
2022/02/20 01:48:15;;;;;;;;;4.00;1.50;;;;;10.97;61.28;101042.78;5097304;27;66509;-60
2022/02/20 01:50:42;;;;;;;;;0.75;0.75;;;;;10.97;61.12;101048.84;5098093;27;46224;-60
2022/02/20 01:53:07;;;;;;;;;2.25;2.00;;;;;10.96;61.23;101049.00;5097310;27;45391;-61
2022/02/20 01:55:33;;;;;;;;;5.00;1.00;;;;;10.95;61.21;101044.69;5098200;27;45378;-61
2022/02/20 01:57:58;;;;;;;;;1.50;1.25;;;;;10.97;61.21;101027.81;5061828;27;70304;-61
2022/02/20 02:00:24;;;;;;;;;4.25;1.50;;;;;10.97;61.00;101037.53;5097496;27;52558;-60
2022/02/20 02:02:49;;;;;;;;;3.00;1.75;;;;;10.97;61.15;101029.63;5097446;27;45314;-60
2022/02/20 02:05:15;;;;;;;;;1.25;1.00;;;;;10.96;61.31;101020.06;5097837;27;45520;-60
2022/02/20 02:07:40;;;;;;;;;2.00;1.00;;;;;10.96;61.18;101023.53;5096627;27;72295;-60
2022/02/20 02:10:06;;;;;;;;;2.00;1.75;;;;;10.95;61.23;101013.97;5097715;27;45521;-60
2022/02/20 02:12:32;;;;;;;;;1.50;0.75;;;;;10.96;61.40;101017.44;5097827;27;45362;-60
2022/02/20 02:15:05;;;;;;;;;6.00;0.00;;;;;10.96;61.58;101014.81;5097574;27;45252;-60
2022/02/20 02:17:31;;;;;;;;;3.25;2.00;;;;;10.97;61.42;101013.84;5097206;27;46126;-61
2022/02/20 02:19:56;;;;;;;;;3.00;2.00;;;;;10.98;61.58;101021.59;5097253;27;45401;-60
2022/02/20 02:22:22;;;;;;;;;1.00;1.00;;;;;10.98;61.70;101026.84;5096726;27;60549;-60
2022/02/20 02:24:48;;;;;;;;;2.50;2.00;;;;;10.98;61.62;101024.22;5097338;27;45559;-60
2022/02/20 02:27:13;;;;;;;;;3.50;1.75;;;;;10.99;61.78;101036.41;5097000;27;45983;-60
2022/02/20 02:29:39;;;;;;;;;2.00;2.00;;;;;10.97;61.58;101024.38;5097419;27;45462;-60
2022/02/20 02:32:05;;;;;;;;;5.75;3.75;;;;;10.97;61.81;101021.75;5097279;27;45510;-60
2022/02/20 02:34:30;;;;;;;;;8.25;3.00;;;;;10.97;61.60;101025.19;5097266;27;45154;-61
2022/02/20 02:36:56;;;;;;;;;4.75;2.75;;;;;10.97;61.67;101024.38;5096170;27;71225;-60
2022/02/20 02:39:21;;;;;;;;;2.00;1.75;;;;;10.96;61.76;101030.59;5096400;27;62852;-60
2022/02/20 02:41:47;;;;;;;;;2.75;1.25;;;;;10.97;62.02;101019.13;5077905;27;68723;-60
2022/02/20 02:44:12;;;;;;;;;3.50;1.00;;;;;10.97;61.73;101016.47;5078442;27;45360;-61
2022/02/20 02:46:37;;;;;;;;;3.00;2.00;;;;;10.98;61.78;101013.72;5094404;27;58209;-61
2022/02/20 02:49:04;;;;;;;;;2.00;2.00;;;;;10.99;61.80;101014.56;5097207;27;45368;-60
2022/02/20 02:51:29;;;;;;;;;4.50;2.75;;;;;11.01;61.48;101006.53;5097197;27;45307;-60
2022/02/20 02:53:55;;;;;;;;;3.50;1.75;;;;;11.01;61.00;101031.06;5096896;27;45364;-61
2022/02/20 02:56:21;;;;;;;;;25.50;17.00;;;;;11.01;61.32;101028.41;5096761;27;45434;-61
2022/02/20 02:58:46;;;;;;;;;5.00;2.50;;;;;11.03;61.38;101034.38;5096012;27;45381;-60
2022/02/20 03:01:12;;;;;;;;;4.00;1.00;;;;;11.04;60.96;101046.56;5095989;27;63510;-60
2022/02/20 03:03:37;;;;;;;;;2.50;1.00;;;;;11.05;61.21;101029.84;5078614;27;45376;-59
2022/02/20 03:06:09;;;;;;;;;4.00;2.75;;;;;11.05;60.79;101032.47;5096039;27;61022;-60
2022/02/20 03:08:35;;;;;;;;;4.00;2.00;;;;;11.06;61.01;101026.25;5096642;27;45842;-60
2022/02/20 03:11:00;;;;;;;;;5.00;3.25;;;;;11.08;61.08;101034.00;5096479;27;52272;-60
2022/02/20 03:13:26;;;;;;;;;2.50;1.50;;;;;11.08;60.90;101032.22;5096737;27;45359;-60
2022/02/20 03:15:51;;;;;;;;;4.25;2.00;;;;;11.10;60.74;101026.81;5097415;27;71777;-59
2022/02/20 03:18:16;;;;;;;;;7.00;2.75;;;;;11.09;60.59;101019.88;5099405;27;70240;-60
2022/02/20 03:20:42;;;;;;;;;3.50;2.00;;;;;11.08;60.77;101021.69;5100615;27;45337;-60
2022/02/20 03:23:07;;;;;;;;;7.00;6.00;;;;;11.10;60.52;101016.28;5100353;27;45366;-60
2022/02/20 03:25:32;;;;;;;;;11.25;5.00;;;;;11.10;60.65;101011.03;5100255;27;45325;-63
2022/02/20 03:27:58;;;;;;;;;6.00;2.75;;;;;11.10;60.54;101019.78;5099668;27;59514;-61
2022/02/20 03:30:23;;;;;;;;;5.75;5.25;;;;;11.10;60.99;101035.56;5094487;27;61127;-60
2022/02/20 03:32:49;;;;;;;;;4.25;3.00;;;;;11.10;60.87;101027.66;5078947;28;68538;-60
2022/02/20 03:35:14;;;;;;;;;3.25;2.00;;;;;11.10;61.42;101037.31;5079626;28;45922;-60
2022/02/20 03:37:39;;;;;;;;;9.00;6.00;;;;;11.10;61.21;101037.31;5078699;28;71969;-61
2022/02/20 03:40:05;;;;;;;;;7.75;4.50;;;;;11.11;60.99;101036.38;5079671;28;45171;-60
2022/02/20 03:42:31;;;;;;;;;4.75;3.00;;;;;11.11;60.83;101039.84;5079618;28;45499;-60
2022/02/20 03:44:56;;;;;;;;;9.00;6.00;;;;;11.11;60.96;101039.84;5079460;28;45235;-60
2022/02/20 03:47:21;;;;;;;;;5.00;2.75;;;;;11.15;60.97;101035.16;5079550;28;45339;-61
2022/02/20 03:49:47;;;;;;;;;2.50;2.00;;;;;11.13;61.20;101040.53;5078643;28;66622;-60
2022/02/20 03:52:12;;;;;;;;;2.25;2.00;;;;;11.12;61.26;101036.25;5079620;28;45239;-60
2022/02/20 03:54:37;;;;;;;;;6.00;2.50;;;;;11.11;60.98;101028.47;5078542;28;64912;-60
2022/02/20 03:57:03;;;;;;;;;2.75;2.75;;;;;11.11;61.12;101042.47;5079308;28;45227;-60
2022/02/20 03:59:28;;;;;;;;;6.50;2.00;;;;;11.11;61.21;101045.09;5078663;28;62935;-60
2022/02/20 04:01:54;;;;;;;;;3.00;2.00;;;;;11.11;61.12;101039.84;5079375;28;45416;-59
2022/02/20 04:04:19;;;;;;;;;8.50;4.25;;;;;11.12;61.72;101031.00;5078710;28;59633;-61
2022/02/20 04:06:44;;;;;;;;;3.75;3.00;;;;;11.12;61.31;101035.41;5078428;28;64714;-60
2022/02/20 04:09:12;;;;;;;;;3.00;3.00;;;;;11.11;61.39;101028.47;5078697;28;57811;-60
2022/02/20 04:11:37;;;;;;;;;2.25;1.50;;;;;11.10;61.57;101035.56;5079180;28;45545;-60
2022/02/20 04:14:03;;;;;;;;;11.00;5.00;;;;;11.07;61.64;101027.91;5079073;28;45462;-60
2022/02/20 04:16:28;;;;;;;;;4.25;2.00;;;;;11.05;61.47;101032.47;5078159;28;68151;-60
2022/02/20 04:18:54;;;;;;;;;2.00;2.00;;;;;11.03;61.82;101025.66;5078494;28;59112;-61
2022/02/20 04:21:19;;;;;;;;;3.00;2.00;;;;;11.01;61.91;101015.28;5079208;28;45378;-60
2022/02/20 04:23:44;;;;;;;;;7.50;2.00;;;;;11.00;61.59;101018.88;5078531;28;45385;-60
2022/02/20 04:26:10;;;;;;;;;4.75;3.00;;;;;10.99;62.12;101017.19;5060571;28;45376;-60
2022/02/20 04:28:35;;;;;;;;;3.50;2.50;;;;;10.97;62.24;101024.38;5078914;28;45382;-61
2022/02/20 04:31:01;;;;;;;;;3.00;2.25;;;;;10.95;62.29;101018.41;5077750;27;59918;-61
2022/02/20 04:33:26;;;;;;;;;7.00;2.00;;;;;10.93;62.18;101007.19;5078686;28;45406;-60
2022/02/20 04:35:53;;;;;;;;;6.25;2.00;;;;;10.91;62.15;101020.44;5078566;28;45842;-61
2022/02/20 04:38:18;;;;;;;;;5.00;1.75;;;;;10.90;62.46;101020.56;5078775;28;45568;-61
2022/02/20 04:40:43;;;;;;;;;6.75;2.25;;;;;10.90;62.71;101028.47;5078403;28;50506;-60
2022/02/20 04:43:09;;;;;;;;;4.25;2.00;;;;;10.88;62.17;101031.19;5077822;28;63484;-60
2022/02/20 04:45:34;;;;;;;;;4.50;2.00;;;;;10.87;62.64;101028.72;5078563;28;45311;-60
2022/02/20 04:48:00;;;;;;;;;3.75;3.50;;;;;10.83;62.73;101007.94;5078079;28;55122;-60
2022/02/20 04:50:25;;;;;;;;;5.75;3.25;;;;;10.84;62.92;101008.78;5077604;28;69329;-61
2022/02/20 04:52:50;;;;;;;;;5.50;3.00;;;;;10.81;62.53;101001.97;5078476;28;46002;-61
2022/02/20 04:55:16;;;;;;;;;3.75;2.00;;;;;10.79;62.55;100998.63;5078424;28;45296;-60
2022/02/20 04:57:41;;;;;;;;;3.50;2.00;;;;;10.79;63.06;101003.06;5078543;28;45229;-60
2022/02/20 05:00:08;;;;;;;;;6.25;2.75;;;;;10.78;63.13;100989.06;5077737;28;58503;-60
2022/02/20 05:02:34;;;;;;;;;7.50;4.25;;;;;10.76;63.18;100969.97;5076948;28;45988;-60
2022/02/20 05:04:59;;;;;;;;;4.00;3.00;;;;;10.74;63.28;100974.50;5077928;28;52471;-61
2022/02/20 05:07:24;;;;;;;;;4.75;3.25;;;;;10.69;63.18;100972.28;5077677;28;62019;-61
2022/02/20 05:09:50;;;;;;;;;5.00;2.75;;;;;10.67;63.46;100981.22;5077372;28;67277;-60
2022/02/20 05:12:15;;;;;;;;;4.00;2.00;;;;;10.66;63.63;100969.03;5078171;28;45425;-61
2022/02/20 05:14:41;;;;;;;;;4.00;2.00;;;;;10.65;63.49;100968.22;5059428;28;45340;-60
2022/02/20 05:17:06;;;;;;;;;4.75;3.25;;;;;10.62;63.83;100971.09;5078286;28;45337;-60
2022/02/20 05:19:31;;;;;;;;;3.50;3.00;;;;;10.60;63.67;100975.66;5078134;28;45241;-60
2022/02/20 05:21:57;;;;;;;;;3.75;2.00;;;;;10.58;63.52;100966.25;5058828;28;74744;-60
2022/02/20 05:24:22;;;;;;;;;5.00;3.00;;;;;10.55;63.69;100959.44;5059870;28;45254;-60
2022/02/20 05:26:48;;;;;;;;;6.00;3.00;;;;;10.56;63.57;100968.16;5059770;28;45343;-59
2022/02/20 05:29:13;;;;;;;;;5.50;2.50;;;;;10.54;63.78;100963.00;5077359;28;61884;-60
2022/02/20 05:31:39;;;;;;;;;3.75;3.00;;;;;10.53;63.89;100953.47;5077121;27;60216;-60
2022/02/20 05:34:04;;;;;;;;;3.75;2.25;;;;;10.52;63.79;100952.63;5077893;28;45348;-60
2022/02/20 05:36:29;;;;;;;;;3.50;1.00;;;;;10.51;63.69;100950.13;5077247;28;60841;-61
2022/02/20 05:38:55;;;;;;;;;4.25;2.50;;;;;10.51;64.09;100950.97;5076320;28;66595;-61
2022/02/20 05:41:20;;;;;;;;;3.50;2.00;;;;;10.49;63.71;100955.53;5076942;28;68948;-60
2022/02/20 05:43:46;;;;;;;;;4.50;2.00;;;;;10.50;64.18;100958.97;5077212;28;59408;-60
2022/02/20 05:46:11;;;;;;;;;4.25;2.00;;;;;10.49;64.23;100957.28;5077568;28;45386;-60
2022/02/20 05:48:37;;;;;;;;;5.50;2.25;;;;;10.48;64.08;100972.25;5058882;28;62038;-60
2022/02/20 05:51:03;;;;;;;;;2.00;2.00;;;;;10.47;64.01;100988.97;5077422;28;45408;-60
2022/02/20 05:53:28;;;;;;;;;6.00;2.00;;;;;10.47;64.04;100991.59;5077448;28;45359;-61
2022/02/20 05:55:53;;;;;;;;;6.75;2.00;;;;;10.48;64.35;100998.50;5076937;28;62257;-60
2022/02/20 05:58:19;;;;;;;;;5.25;3.00;;;;;10.47;63.85;101002.09;5076586;28;68259;-60
2022/02/20 06:00:44;;;;;;;;;6.50;2.00;;;;;10.47;63.94;101007.34;5076570;28;46434;-61
2022/02/20 06:03:10;;;;;;;;;4.00;1.25;;;;;10.47;64.03;101002.09;5077404;28;45395;-60
2022/02/20 06:05:35;;;;;;;;;4.50;1.75;;;;;10.47;64.14;101006.50;5077160;28;45313;-61
2022/02/20 06:08:00;;;;;;;;;3.50;2.00;;;;;10.49;64.03;101007.22;5076694;28;60073;-60
2022/02/20 06:10:26;;;;;;;;;5.00;2.00;;;;;10.48;64.05;101006.41;5077262;28;46160;-60
2022/02/20 06:12:52;;;;;;;;;3.00;2.00;;;;;10.49;64.07;101002.81;5076720;28;55228;-60
2022/02/20 06:15:18;;;;;;;;;7.00;2.00;;;;;10.47;64.07;100986.34;5059397;28;45389;-59
2022/02/20 06:17:43;;;;;;;;;4.00;2.00;;;;;10.50;64.12;100996.59;5058254;28;66062;-60
2022/02/20 06:20:09;;;;;;;;;3.75;2.50;;;;;10.50;64.01;100986.09;5076182;28;68206;-60
2022/02/20 06:22:34;;;;;;;;;5.50;2.50;;;;;10.51;64.17;100982.50;5076125;28;45366;-61
2022/02/20 06:25:00;;;;;;;;;1.00;1.00;;;;;10.50;64.22;100987.88;5076461;28;63397;-60
2022/02/20 06:27:25;;;;;;;;;4.75;3.75;;;;;10.51;64.03;100985.13;5076310;28;58766;-60
2022/02/20 06:29:50;;;;;;;;;7.50;6.25;;;;;10.50;64.43;100979.97;5076853;27;46172;-60
2022/02/20 06:32:16;;;;;;;;;8.25;8.00;;;;;10.51;64.16;100982.50;5075802;28;71424;-60
2022/02/20 06:34:41;;;;;;;;;8.50;7.00;;;;;10.51;64.32;100965.88;5076275;28;63627;-60
2022/02/20 06:37:07;;;;;;;;;5.25;2.75;;;;;10.53;64.46;100969.22;5076353;28;56439;-60
2022/02/20 06:39:32;;;;;;;;;3.50;2.00;;;;;10.53;64.16;100980.59;5076692;28;46198;-60
2022/02/20 06:41:58;;;;;;;;;5.00;3.00;;;;;10.53;64.20;100982.38;5076073;28;45343;-61
2022/02/20 06:44:23;;;;;;;;;2.00;2.00;;;;;10.52;64.31;100973.66;5076881;28;45260;-60
2022/02/20 06:46:49;;;;;;;;;4.00;2.25;;;;;10.56;64.42;100973.41;5076240;28;48045;-60
2022/02/20 06:49:14;;;;;;;;;3.25;3.00;;;;;10.56;64.34;100947.97;5076113;28;45956;-60
2022/02/20 06:51:40;;;;;;;;;5.00;2.00;;;;;10.58;64.58;100955.72;5076017;28;45217;-60
2022/02/20 06:54:05;;;;;;;;;3.00;2.00;;;;;10.59;64.64;100963.47;5076714;28;45245;-60
2022/02/20 06:56:31;;;;;;;;;2.75;1.50;;;;;10.58;64.47;100977.56;5076738;28;45149;-61
2022/02/20 06:58:57;;;;;;;;;7.00;5.25;;;;;10.58;64.54;100982.00;5075784;28;66210;-60
2022/02/20 07:01:22;;;;;;;;;4.50;3.00;;;;;10.59;64.61;100963.47;5076674;28;45314;-61
2022/02/20 07:03:48;;;;;;;;;3.50;3.00;;;;;10.60;64.28;100953.81;5075816;28;63739;-60
2022/02/20 07:06:13;;;;;;;;;3.25;2.00;;;;;10.61;64.33;100952.81;5075679;28;61298;-59
2022/02/20 07:08:38;;;;;;;;;3.00;1.00;;;;;10.60;64.75;100953.81;5075563;28;66007;-61
2022/02/20 07:11:04;;;;;;;;;5.75;3.75;;;;;10.59;64.87;100960.84;5057187;28;71956;-60
2022/02/20 07:13:29;;;;;;;;;1.75;1.75;;;;;10.60;64.81;100964.31;5075712;28;61625;-60
2022/02/20 07:15:54;;;;;;;;;4.50;2.00;;;;;10.63;64.73;100969.28;5075386;28;70441;-60
2022/02/20 07:18:20;;;;;;;;;3.75;2.00;;;;;10.65;64.72;100985.78;5075650;28;63493;-61
2022/02/20 07:20:45;;;;;;;;;1.75;1.00;;;;;10.65;65.06;100993.66;5076131;28;45429;-60
2022/02/20 07:23:11;;;;;;;;;2.00;2.00;;;;;10.66;64.59;101001.44;5076405;28;45580;-60
2022/02/20 07:25:36;;;;;;;;;2.75;1.50;;;;;10.68;64.86;101017.91;5076137;28;45291;-59
2022/02/20 07:28:02;;;;;;;;;1.00;1.00;;;;;10.69;64.58;101016.09;5057980;28;46102;-60
2022/02/20 07:30:28;;;;;;;;;2.25;2.25;;;;;10.71;64.58;101029.97;5075802;28;45427;-59
2022/02/20 07:32:57;;;;;;;;;2.75;1.00;;;;;10.72;64.62;101015.84;5076303;28;45310;-60
2022/02/20 07:35:23;;;;;;;;;6.50;2.50;;;;;10.75;64.50;101018.25;5076050;28;45435;-60
2022/02/20 07:37:48;;;;;;;;;1.75;1.50;;;;;10.77;64.87;101013.69;5075324;28;45264;-60
2022/02/20 07:40:15;;;;;;;;;2.25;1.75;;;;;10.80;64.51;101018.69;5075445;28;62702;-60
2022/02/20 07:42:40;;;;;;;;;7.00;4.25;;;;;10.82;64.57;101014.16;5076034;28;45401;-60
2022/02/20 07:45:06;;;;;;;;;5.00;1.75;;;;;10.84;64.59;101003.53;5075975;28;45470;-60
2022/02/20 07:47:31;;;;;;;;;3.00;1.50;;;;;10.87;64.65;101018.19;5074975;28;45244;-60
2022/02/20 07:49:57;;;;;;;;;4.75;2.00;;;;;10.89;64.48;101017.09;5075300;28;62705;-61
2022/02/20 07:52:23;;;;;;;;;3.50;3.00;;;;;10.92;64.71;101016.03;5075855;28;46785;-61
2022/02/20 07:54:49;;;;;;;;;8.25;4.00;;;;;10.96;64.43;101020.06;5057463;28;45483;-60
2022/02/20 07:57:14;;;;;;;;;9.50;5.50;;;;;10.98;64.69;101015.53;5075692;28;45439;-60
2022/02/20 07:59:40;;;;;;;;;9.75;9.25;;;;;10.99;64.37;101028.53;5075773;28;45347;-60
2022/02/20 08:02:05;;;;;;;;;7.00;4.00;;;;;11.03;64.42;101044.06;5076714;28;57016;-60
2022/02/20 08:04:30;;;;;;;;;4.00;2.25;;;;;11.04;64.36;101051.84;5079353;28;45434;-60
2022/02/20 08:06:56;;;;;;;;;7.50;6.00;;;;;11.07;64.15;101050.72;5078925;28;45911;-60
2022/02/20 08:09:23;;;;;;;;;4.00;2.00;;;;;11.05;64.35;101052.66;5079018;28;45367;-60
2022/02/20 08:11:49;;;;;;;;;5.75;2.25;;;;;11.09;64.39;101044.41;5079340;28;45306;-61
2022/02/20 08:14:14;;;;;;;;;3.50;2.00;;;;;11.12;64.27;101038.03;5079307;28;45373;-60
2022/02/20 08:16:39;;;;;;;;;3.25;1.75;;;;;11.14;64.40;101033.50;5078982;28;45906;-61
2022/02/20 08:19:05;;;;;;;;;4.00;2.00;;;;;11.17;64.16;101027.13;5077902;28;67537;-60
2022/02/20 08:21:31;;;;;;;;;3.25;1.75;;;;;11.19;64.23;101012.91;5078860;28;45550;-60
2022/02/20 08:23:56;;;;;;;;;1.75;1.75;;;;;11.21;63.94;101018.88;5077844;28;67914;-60
2022/02/20 08:26:22;;;;;;;;;3.00;2.25;;;;;11.25;63.84;101016.81;5077983;28;46088;-60
2022/02/20 08:28:48;;;;;;;;;4.25;3.75;;;;;11.28;63.90;101020.03;5078451;28;45335;-59
2022/02/20 08:31:13;;;;;;;;;2.50;2.00;;;;;11.32;63.76;101010.06;5078554;27;45252;-60
2022/02/20 08:33:38;;;;;;;;;6.00;1.25;;;;;11.37;64.00;101012.31;5077825;28;66706;-60
2022/02/20 08:36:05;;;;;;;;;2.00;2.00;;;;;11.41;63.56;101011.94;5077771;28;69254;-61
2022/02/20 08:38:30;;;;;;;;;15.50;15.50;;;;;11.44;63.57;101005.56;5078769;28;45196;-60
2022/02/20 08:40:55;;;;;;;;;6.00;4.00;;;;;11.50;63.68;100998.97;5078755;28;45198;-60
2022/02/20 08:43:21;;;;;;;;;2.75;2.75;;;;;11.54;63.44;100979.31;5077723;28;69066;-61
2022/02/20 08:45:48;;;;;;;;;4.25;1.75;;;;;11.60;63.50;100973.53;5078184;28;46124;-60
2022/02/20 08:48:16;;;;;;;;;3.25;3.25;;;;;11.67;63.61;100969.38;5078541;28;45389;-61
2022/02/20 08:50:42;;;;;;;;;5.00;2.50;;;;;11.75;62.86;100979.25;5078607;28;45472;-61
2022/02/20 08:53:08;;;;;;;;;6.00;3.25;;;;;11.84;62.75;100977.63;5078546;28;45426;-60
2022/02/20 08:55:33;;;;;;;;;6.00;3.75;;;;;11.96;62.81;100984.44;5078069;28;51987;-60
2022/02/20 08:57:59;;;;;;;;;3.75;2.00;;;;;12.08;62.61;100979.13;5077283;28;66660;-60
2022/02/20 09:00:24;;;;;;;;;9.75;6.50;;;;;12.22;62.38;100967.34;5077357;28;65310;-61
2022/02/20 09:02:49;;;;;;;;;8.75;4.00;;;;;12.34;62.15;100973.31;5078021;28;45426;-60
2022/02/20 09:05:15;;;;;;;;;5.00;2.25;;;;;12.42;61.54;100974.31;5076953;28;70315;-60
2022/02/20 09:07:41;;;;;;;;;6.00;2.75;;;;;12.52;61.28;100986.66;5077079;28;45331;-61
2022/02/20 09:10:08;;;;;;;;;6.75;4.00;;;;;12.59;60.87;100980.72;5078237;28;45684;-60
2022/02/20 09:12:34;;;;;;;;;2.75;2.00;;;;;12.68;61.03;100980.84;5077595;28;45431;-61
2022/02/20 09:14:59;;;;;;;;;7.75;3.25;;;;;12.76;60.78;100980.97;5058874;28;45356;-60
2022/02/20 09:17:25;;;;;;;;;3.00;1.25;;;;;12.87;60.46;100980.81;5077276;28;65238;-61
2022/02/20 09:19:50;;;;;;;;;8.25;3.00;;;;;12.98;60.55;100989.56;5078010;28;45302;-61
2022/02/20 09:22:16;;;;;;;;;8.25;4.50;;;;;13.08;59.64;100977.19;5077086;28;62503;-60
2022/02/20 09:24:42;;;;;;;;;4.00;2.00;;;;;13.14;59.35;100979.28;5077777;28;45504;-61
2022/02/20 09:27:07;;;;;;;;;3.75;2.00;;;;;13.24;59.54;100978.44;5076782;28;45406;-61
2022/02/20 09:29:33;;;;;;;;;5.00;2.50;;;;;13.34;59.09;100968.66;5077087;28;66343;-60
2022/02/20 09:32:00;;;;;;;;;7.00;3.25;;;;;13.44;59.37;100966.03;5077702;28;45303;-59
2022/02/20 09:34:25;;;;;;;;;4.50;2.75;;;;;13.56;58.82;100961.41;5076924;28;46299;-60
2022/02/20 09:36:51;;;;;;;;;5.00;3.00;;;;;13.69;58.59;100959.25;5077025;28;65903;-60
2022/02/20 09:39:16;;;;;;;;;5.25;3.50;;;;;13.88;57.87;100958.31;5076950;28;65526;-60
2022/02/20 09:41:42;;;;;;;;;5.00;2.25;;;;;14.08;57.65;100961.69;5076695;28;68956;-60
2022/02/20 09:44:07;;;;;;;;;8.00;5.75;;;;;14.31;57.01;100974.44;5059517;28;45433;-61
2022/02/20 09:46:32;;;;;;;;;7.00;6.75;;;;;14.51;56.37;100966.38;5076734;28;61887;-61
2022/02/20 09:48:58;;;;;;;;;2.00;1.50;;;;;14.67;55.11;100955.97;5041895;28;63196;-61
2022/02/20 09:51:24;;;;;;;;;3.00;1.00;;;;;14.80;55.37;100944.19;5077433;28;45533;-61
2022/02/20 09:53:50;;;;;;;;;4.75;2.00;;;;;14.95;55.57;100936.53;5077175;28;45311;-60
2022/02/20 09:56:15;;;;;;;;;5.50;4.00;;;;;15.09;54.43;100943.06;5077381;28;45268;-61
2022/02/20 09:58:41;;;;;;;;;3.25;2.75;;;;;15.16;54.69;100937.97;5076978;28;51883;-61
2022/02/20 10:01:08;;;;;;;;;7.00;3.00;;;;;15.18;54.12;100928.03;5077357;28;45509;-61
2022/02/20 10:03:34;;;;;;;;;3.00;0.75;;;;;15.23;53.91;100918.66;5058803;28;45678;-61
2022/02/20 10:06:01;;;;;;;;;3.25;1.50;;;;;15.31;53.78;100925.00;5077184;28;45769;-60
2022/02/20 10:08:34;;;;;;;;;3.50;1.75;;;;;15.42;54.06;100938.78;5059419;28;45268;-61
2022/02/20 10:11:15;;;;;;;;;2.75;1.50;;;;;15.65;53.86;100946.16;5077088;28;47948;-61
2022/02/20 10:13:40;;;;;;;;;2.00;1.75;;;;;15.80;53.04;100956.97;5077073;28;45464;-61
2022/02/20 10:16:19;;;;;;;;;5.00;2.00;;;;;15.91;52.84;100947.94;5077086;28;45426;-61
2022/02/20 10:18:46;;;;;;;;;3.75;2.00;;;;;16.04;52.53;100952.75;5077102;28;45241;-61
2022/02/20 10:21:15;;;;;;;;;2.25;1.75;;;;;16.12;52.19;100965.22;5058644;28;45647;-61
2022/02/20 10:23:40;;;;;;;;;2.25;1.75;;;;;16.21;51.83;100960.75;5042559;28;45381;-60
2022/02/20 10:26:10;;;;;;;;;2.50;1.00;;;;;16.28;51.71;100964.44;5075646;28;69313;-61
2022/02/20 10:28:36;;;;;;;;;1.75;1.50;;;;;16.35;51.01;100962.78;5076028;28;45324;-61
2022/02/20 10:31:01;;;;;;;;;3.00;1.50;;;;;16.43;51.33;100954.00;5067858;27;64370;-61
2022/02/20 10:33:27;;;;;;;;;3.00;1.25;;;;;16.52;50.84;100944.22;5077683;27;70026;-60
2022/02/20 10:35:54;;;;;;;;;4.75;1.00;;;;;16.57;50.50;100941.91;5096981;27;45259;-61
2022/02/20 10:38:24;;;;;;;;;3.50;1.00;;;;;16.60;50.18;100936.25;5097106;27;45275;-60
2022/02/20 10:40:50;;;;;;;;;2.50;1.75;;;;;16.66;50.16;100927.63;5096502;27;45387;-61
2022/02/20 10:43:27;;;;;;;;;2.75;2.00;;;;;16.72;50.06;100934.94;5078650;27;47303;-61
2022/02/20 10:46:08;;;;;;;;;5.25;2.00;;;;;16.75;49.59;100944.38;5096776;27;45750;-60
2022/02/20 10:49:03;;;;;;;;;8.75;8.00;;;;;16.81;49.77;100942.91;5097070;27;45299;-60
2022/02/20 10:51:39;;;;;;;;;3.00;2.00;;;;;16.86;49.06;100932.59;5060497;27;61199;-61
2022/02/20 10:54:05;;;;;;;;;2.75;2.00;;;;;16.81;48.66;100927.78;5097024;27;46080;-61
2022/02/20 10:56:41;;;;;;;;;2.00;1.25;;;;;16.71;48.86;100930.63;5096671;27;47171;-61
2022/02/20 10:59:06;;;;;;;;;1.00;1.00;;;;;16.61;48.76;100929.97;5097063;27;45242;-60
2022/02/20 11:01:31;;;;;;;;;5.00;2.25;;;;;16.49;48.91;100923.31;5096915;27;45331;-61
2022/02/20 11:04:10;;;;;;;;;3.00;1.00;;;;;16.37;48.97;100926.31;5096636;27;45373;-61
2022/02/20 11:06:49;;;;;;;;;2.00;2.00;;;;;16.28;49.00;100914.06;5078953;27;45901;-62
2022/02/20 11:09:15;;;;;;;;;5.25;3.75;;;;;16.16;49.09;100917.00;5078702;27;45238;-60
2022/02/20 11:11:47;;;;;;;;;2.00;2.00;;;;;16.04;49.28;100905.06;5096473;27;45295;-61
2022/02/20 11:14:13;;;;;;;;;5.75;3.00;;;;;15.92;49.52;100907.19;5079237;27;47153;-61
2022/02/20 11:16:52;;;;;;;;;2.00;2.00;;;;;15.81;49.68;100907.47;5096586;27;47790;-60
2022/02/20 11:19:21;;;;;;;;;6.00;1.00;;;;;15.75;49.72;100906.28;5096856;27;45239;-61